createdAt,value
2019-05-05T00:00:44.656Z,7.43
2019-05-05T00:01:44.914Z,7.47
2019-05-05T00:02:44.736Z,7.51
2019-05-05T00:03:44.527Z,7.50
2019-05-05T00:04:42.827Z,7.46
2019-05-05T00:05:44.421Z,7.47
2019-05-05T00:06:44.555Z,7.50
2019-05-05T00:07:44.752Z,7.40
2019-05-05T00:08:42.965Z,7.55
2019-05-05T00:09:44.925Z,7.43
2019-05-05T00:10:45.159Z,7.48
2019-05-05T00:11:44.442Z,7.41
2019-05-05T00:12:44.746Z,7.41
2019-05-05T00:13:44.683Z,7.31
2019-05-05T00:14:44.244Z,7.28
2019-05-05T00:15:44.900Z,7.36
2019-05-05T00:16:44.498Z,7.39
2019-05-05T00:17:44.867Z,7.33
2019-05-05T00:18:44.783Z,7.31
2019-05-05T00:19:42.915Z,7.25
2019-05-05T00:20:44.657Z,7.26
2019-05-05T00:21:44.602Z,7.26
2019-05-05T00:22:42.906Z,7.21
2019-05-05T00:23:44.984Z,7.22
2019-05-05T00:24:44.402Z,7.15
2019-05-05T00:25:44.750Z,7.14
2019-05-05T00:26:42.895Z,7.11
2019-05-05T00:27:45.136Z,7.18
2019-05-05T00:28:44.764Z,7.14
2019-05-05T00:29:45.143Z,7.00
2019-05-05T00:30:44.855Z,6.95
2019-05-05T00:31:45.261Z,7.13
2019-05-05T00:32:44.281Z,7.15
2019-05-05T00:33:44.826Z,7.05
2019-05-05T00:34:44.444Z,7.08
2019-05-05T00:35:45.001Z,7.07
2019-05-05T00:36:44.570Z,7.04
2019-05-05T00:37:44.943Z,7.03
2019-05-05T00:38:44.517Z,6.96
2019-05-05T00:39:45.007Z,7.04
2019-05-05T00:40:44.304Z,7.01
2019-05-05T00:41:44.918Z,6.97
2019-05-05T00:42:42.977Z,7.04
2019-05-05T00:43:44.965Z,6.97
2019-05-05T00:44:44.661Z,7.07
2019-05-05T00:45:45.008Z,7.03
2019-05-05T00:46:44.704Z,7.03
2019-05-05T00:47:44.942Z,7.04
2019-05-05T00:48:44.431Z,6.96
2019-05-05T00:49:46.351Z,6.96
2019-05-05T00:50:44.934Z,6.86
2019-05-05T00:51:44.360Z,6.90
2019-05-05T00:52:44.546Z,6.92
2019-05-05T00:53:44.921Z,6.86
2019-05-05T00:54:44.971Z,7.00
2019-05-05T00:55:44.285Z,7.01
2019-05-05T00:56:45.000Z,6.96
2019-05-05T00:57:45.153Z,7.01
2019-05-05T00:58:44.603Z,6.90
2019-05-05T00:59:45.078Z,6.96
2019-05-05T01:00:44.366Z,6.92
2019-05-05T01:01:44.818Z,6.90
2019-05-05T01:02:44.796Z,6.96
2019-05-05T01:03:44.200Z,6.92
2019-05-05T01:04:44.521Z,6.93
2019-05-05T01:05:44.826Z,6.97
2019-05-05T01:06:44.980Z,6.93
2019-05-05T01:07:44.424Z,6.90
2019-05-05T01:08:44.559Z,6.86
2019-05-05T01:09:44.986Z,6.82
2019-05-05T01:10:44.325Z,6.77
2019-05-05T01:11:44.609Z,6.78
2019-05-05T01:12:44.923Z,6.92
2019-05-05T01:13:45.345Z,6.89
2019-05-05T01:14:44.787Z,6.90
2019-05-05T01:15:44.865Z,6.89
2019-05-05T01:16:43.126Z,6.82
2019-05-05T01:17:45.028Z,6.89
2019-05-05T01:18:44.968Z,6.87
2019-05-05T01:19:45.395Z,6.78
2019-05-05T01:20:44.865Z,6.89
2019-05-05T01:21:45.274Z,6.71
2019-05-05T01:22:44.811Z,6.72
2019-05-05T01:23:45.349Z,6.72
2019-05-05T01:24:43.210Z,6.75
2019-05-05T01:25:45.194Z,6.75
2019-05-05T01:26:44.626Z,6.71
2019-05-05T01:27:45.150Z,6.74
2019-05-05T01:28:44.700Z,6.77
2019-05-05T01:29:45.067Z,6.70
2019-05-05T01:30:44.513Z,6.74
2019-05-05T01:31:45.054Z,6.65
2019-05-05T01:32:44.597Z,6.65
2019-05-05T01:33:44.878Z,6.53
2019-05-05T01:34:44.357Z,6.54
2019-05-05T01:35:44.770Z,6.53
2019-05-05T01:36:44.996Z,6.49
2019-05-05T01:37:44.289Z,6.53
2019-05-05T01:38:44.689Z,6.47
2019-05-05T01:39:45.118Z,6.49
2019-05-05T01:40:44.678Z,6.52
2019-05-05T01:41:45.193Z,6.53
2019-05-05T01:42:44.679Z,6.50
2019-05-05T01:43:45.058Z,6.50
2019-05-05T01:44:44.787Z,6.54
2019-05-05T01:45:45.219Z,6.50
2019-05-05T01:46:44.502Z,6.52
2019-05-05T01:47:45.136Z,6.49
2019-05-05T01:48:44.507Z,6.47
2019-05-05T01:49:45.189Z,6.53
2019-05-05T01:50:45.191Z,6.47
2019-05-05T01:51:44.722Z,6.43
2019-05-05T01:52:45.100Z,6.49
2019-05-05T01:53:44.283Z,6.52
2019-05-05T01:54:44.595Z,6.44
2019-05-05T01:55:45.067Z,6.44
2019-05-05T01:56:44.531Z,6.57
2019-05-05T01:57:45.041Z,6.62
2019-05-05T01:58:44.171Z,6.60
2019-05-05T01:59:44.800Z,6.56
2019-05-05T02:00:45.089Z,6.64
2019-05-05T02:01:44.528Z,6.59
2019-05-05T02:02:44.835Z,6.54
2019-05-05T02:03:44.283Z,6.67
2019-05-05T02:04:44.681Z,6.68
2019-05-05T02:05:45.130Z,6.59
2019-05-05T02:06:44.341Z,6.70
2019-05-05T02:07:44.819Z,6.59
2019-05-05T02:08:45.282Z,6.68
2019-05-05T02:09:44.806Z,6.68
2019-05-05T02:10:45.275Z,6.62
2019-05-05T02:11:45.221Z,6.62
2019-05-05T02:12:44.693Z,6.67
2019-05-05T02:13:45.061Z,6.60
2019-05-05T02:14:44.426Z,6.64
2019-05-05T02:15:44.583Z,6.67
2019-05-05T02:16:45.210Z,6.68
2019-05-05T02:17:44.575Z,6.75
2019-05-05T02:18:45.047Z,6.75
2019-05-05T02:19:44.348Z,6.75
2019-05-05T02:20:45.109Z,6.70
2019-05-05T02:21:45.275Z,6.70
2019-05-05T02:22:44.588Z,6.70
2019-05-05T02:23:45.178Z,6.83
2019-05-05T02:24:44.440Z,6.78
2019-05-05T02:25:44.765Z,6.77
2019-05-05T02:26:45.434Z,6.70
2019-05-05T02:27:44.698Z,6.70
2019-05-05T02:28:45.284Z,6.78
2019-05-05T02:29:44.686Z,6.71
2019-05-05T02:30:46.287Z,6.71
2019-05-05T02:31:45.409Z,6.85
2019-05-05T02:32:45.178Z,6.80
2019-05-05T02:33:46.006Z,6.75
2019-05-05T02:34:45.638Z,6.75
2019-05-05T02:35:45.844Z,6.85
2019-05-05T02:36:45.974Z,6.78
2019-05-05T02:37:45.693Z,6.83
2019-05-05T02:38:46.163Z,6.77
2019-05-05T02:39:50.497Z,6.80
2019-05-05T02:40:45.219Z,6.83
2019-05-05T02:41:45.246Z,6.70
2019-05-05T02:42:45.571Z,6.75
2019-05-05T02:43:44.970Z,6.83
2019-05-05T02:44:45.532Z,6.82
2019-05-05T02:45:44.117Z,6.92
2019-05-05T02:46:44.650Z,6.78
2019-05-05T02:47:45.068Z,6.78
2019-05-05T02:48:44.980Z,6.78
2019-05-05T02:49:45.388Z,6.82
2019-05-05T02:50:54.900Z,6.78
2019-05-05T02:51:44.713Z,6.85
2019-05-05T02:52:44.242Z,6.86
2019-05-05T02:53:44.551Z,6.85
2019-05-05T02:54:44.231Z,6.78
2019-05-05T02:55:44.224Z,6.78
2019-05-05T02:56:43.690Z,6.78
2019-05-05T02:57:43.952Z,6.80
2019-05-05T02:58:44.378Z,6.75
2019-05-05T02:59:43.551Z,6.77
2019-05-05T03:00:43.794Z,6.82
2019-05-05T03:01:44.623Z,6.87
2019-05-05T03:02:43.549Z,6.72
2019-05-05T03:03:43.858Z,6.77
2019-05-05T03:04:44.349Z,6.85
2019-05-05T03:05:43.552Z,6.85
2019-05-05T03:06:43.791Z,6.75
2019-05-05T03:07:43.818Z,6.72
2019-05-05T03:08:44.056Z,6.74
2019-05-05T03:09:44.000Z,6.71
2019-05-05T03:10:44.324Z,6.77
2019-05-05T03:11:43.707Z,6.86
2019-05-05T03:12:43.965Z,6.71
2019-05-05T03:13:44.228Z,6.72
2019-05-05T03:14:44.620Z,6.71
2019-05-05T03:15:44.148Z,6.74
2019-05-05T03:16:43.634Z,6.71
2019-05-05T03:17:44.490Z,6.78
2019-05-05T03:18:43.986Z,6.78
2019-05-05T03:19:44.453Z,6.86
2019-05-05T03:20:43.681Z,6.87
2019-05-05T03:21:44.165Z,6.74
2019-05-05T03:22:43.569Z,6.72
2019-05-05T03:23:44.014Z,6.75
2019-05-05T03:24:44.676Z,6.71
2019-05-05T03:25:44.029Z,6.90
2019-05-05T03:26:44.395Z,6.77
2019-05-05T03:27:44.544Z,6.72
2019-05-05T03:28:43.909Z,6.75
2019-05-05T03:29:44.167Z,6.77
2019-05-05T03:30:45.485Z,6.74
2019-05-05T03:31:45.790Z,6.75
2019-05-05T03:32:45.510Z,6.75
2019-05-05T03:33:45.935Z,6.83
2019-05-05T03:34:44.538Z,6.78
2019-05-05T03:35:43.671Z,6.77
2019-05-05T03:36:44.204Z,6.72
2019-05-05T03:37:44.626Z,6.80
2019-05-05T03:38:44.448Z,6.82
2019-05-05T03:39:44.455Z,6.77
2019-05-05T03:40:43.688Z,6.86
2019-05-05T03:41:43.861Z,6.75
2019-05-05T03:42:44.256Z,6.85
2019-05-05T03:43:43.624Z,6.71
2019-05-05T03:44:44.086Z,6.75
2019-05-05T03:45:44.476Z,6.83
2019-05-05T03:46:43.909Z,6.72
2019-05-05T03:47:44.143Z,6.85
2019-05-05T03:48:43.884Z,6.89
2019-05-05T03:49:44.223Z,6.90
2019-05-05T03:50:44.629Z,6.90
2019-05-05T03:51:43.936Z,6.92
2019-05-05T03:52:43.904Z,6.92
2019-05-05T03:53:44.064Z,7.01
2019-05-05T03:54:43.671Z,7.01
2019-05-05T03:55:44.040Z,7.01
2019-05-05T03:56:44.266Z,6.97
2019-05-05T03:57:44.487Z,7.00
2019-05-05T03:58:43.772Z,7.03
2019-05-05T03:59:44.284Z,6.97
2019-05-05T04:00:43.679Z,7.04
2019-05-05T04:01:44.038Z,7.18
2019-05-05T04:02:44.518Z,7.21
2019-05-05T04:03:43.723Z,7.18
2019-05-05T04:04:44.287Z,7.15
2019-05-05T04:05:44.452Z,7.22
2019-05-05T04:06:44.593Z,7.19
2019-05-05T04:07:44.122Z,7.23
2019-05-05T04:08:44.436Z,7.25
2019-05-05T04:09:43.874Z,7.25
2019-05-05T04:10:43.997Z,7.37
2019-05-05T04:11:44.392Z,7.44
2019-05-05T04:12:43.722Z,7.43
2019-05-05T04:13:43.827Z,7.44
2019-05-05T04:14:44.095Z,7.47
2019-05-05T04:15:44.203Z,7.56
2019-05-05T04:16:43.748Z,7.55
2019-05-05T04:17:44.401Z,7.56
2019-05-05T04:18:43.752Z,7.69
2019-05-05T04:19:43.764Z,7.75
2019-05-05T04:20:44.214Z,7.84
2019-05-05T04:21:44.896Z,7.83
2019-05-05T04:22:43.752Z,7.93
2019-05-05T04:23:44.271Z,7.93
2019-05-05T04:24:43.816Z,7.88
2019-05-05T04:25:44.033Z,8.01
2019-05-05T04:26:44.149Z,8.09
2019-05-05T04:27:44.491Z,8.14
2019-05-05T04:28:43.811Z,8.24
2019-05-05T04:29:44.094Z,8.35
2019-05-05T04:30:44.458Z,8.53
2019-05-05T04:31:43.794Z,8.64
2019-05-05T04:32:44.055Z,8.89
2019-05-05T04:33:44.476Z,9.18
2019-05-05T04:34:44.165Z,9.30
2019-05-05T04:35:44.468Z,9.51
2019-05-05T04:36:44.371Z,9.91
2019-05-05T04:37:43.903Z,10.13
2019-05-05T04:38:44.077Z,10.55
2019-05-05T04:39:44.473Z,10.83
2019-05-05T04:40:43.863Z,11.33
2019-05-05T04:41:44.110Z,11.67
2019-05-05T04:42:44.175Z,12.03
2019-05-05T04:43:44.299Z,12.40
2019-05-05T04:44:44.855Z,12.62
2019-05-05T04:45:43.860Z,12.87
2019-05-05T04:46:44.343Z,13.02
2019-05-05T04:47:43.859Z,13.26
2019-05-05T04:48:43.977Z,13.50
2019-05-05T04:49:44.517Z,13.67
2019-05-05T04:50:44.172Z,13.89
2019-05-05T04:51:49.424Z,13.97
2019-05-05T04:52:43.891Z,14.22
2019-05-05T04:53:43.908Z,14.37
2019-05-05T04:54:44.006Z,14.56
2019-05-05T04:55:44.313Z,14.63
2019-05-05T04:56:44.785Z,14.93
2019-05-05T04:57:43.911Z,14.94
2019-05-05T04:58:44.080Z,15.23
2019-05-05T04:59:44.445Z,15.57
2019-05-05T05:00:44.230Z,15.73
2019-05-05T05:01:44.066Z,16.02
2019-05-05T05:02:43.954Z,16.31
2019-05-05T05:03:43.974Z,16.55
2019-05-05T05:04:44.132Z,16.89
2019-05-05T05:05:44.265Z,17.19
2019-05-05T05:06:43.994Z,17.37
2019-05-05T05:07:44.029Z,17.28
2019-05-05T05:08:44.399Z,17.34
2019-05-05T05:09:44.012Z,17.04
2019-05-05T05:10:44.071Z,17.31
2019-05-05T05:11:44.377Z,17.49
2019-05-05T05:12:44.050Z,17.31
2019-05-05T05:13:44.169Z,17.52
2019-05-05T05:14:44.192Z,17.69
2019-05-05T05:15:44.625Z,18.03
2019-05-05T05:16:44.055Z,18.19
2019-05-05T05:17:44.381Z,18.73
2019-05-05T05:18:44.634Z,19.01
2019-05-05T05:19:44.098Z,19.26
2019-05-05T05:20:44.416Z,19.41
2019-05-05T05:21:51.966Z,19.44
2019-05-05T05:22:44.148Z,19.09
2019-05-05T05:23:44.547Z,19.45
2019-05-05T05:24:44.675Z,19.63
2019-05-05T05:25:44.131Z,20.07
2019-05-05T05:26:44.321Z,19.96
2019-05-05T05:27:44.435Z,19.94
2019-05-05T05:28:44.755Z,20.11
2019-05-05T05:29:44.153Z,20.36
2019-05-05T05:30:44.203Z,20.48
2019-05-05T05:31:44.346Z,20.68
2019-05-05T05:32:44.680Z,20.77
2019-05-05T05:33:44.226Z,20.82
2019-05-05T05:34:44.334Z,21.01
2019-05-05T05:35:44.270Z,21.03
2019-05-05T05:36:44.370Z,21.13
2019-05-05T05:37:44.886Z,21.20
2019-05-05T05:38:44.323Z,21.35
2019-05-05T05:39:44.254Z,21.54
2019-05-05T05:40:44.488Z,21.33
2019-05-05T05:41:44.291Z,21.35
2019-05-05T05:42:44.294Z,21.43
2019-05-05T05:43:44.289Z,21.59
2019-05-05T05:44:44.555Z,21.26
2019-05-05T05:45:44.322Z,21.07
2019-05-05T05:46:44.336Z,21.19
2019-05-05T05:47:44.399Z,21.33
2019-05-05T05:48:44.374Z,21.08
2019-05-05T05:49:44.405Z,20.78
2019-05-05T05:50:44.438Z,20.60
2019-05-05T05:51:44.781Z,20.66
2019-05-05T05:52:44.392Z,21.01
2019-05-05T05:53:44.415Z,20.98
2019-05-05T05:54:44.442Z,20.90
2019-05-05T05:55:44.877Z,21.11
2019-05-05T05:56:44.752Z,21.07
2019-05-05T05:57:44.488Z,21.30
2019-05-05T05:58:44.450Z,21.19
2019-05-05T05:59:44.565Z,20.89
2019-05-05T06:00:44.513Z,20.80
2019-05-05T06:01:44.511Z,20.67
2019-05-05T06:02:44.613Z,20.92
2019-05-05T06:03:44.545Z,21.14
2019-05-05T06:04:44.737Z,21.20
2019-05-05T06:05:44.554Z,21.51
2019-05-05T06:06:44.603Z,21.77
2019-05-05T06:07:44.542Z,21.68
2019-05-05T06:08:44.583Z,21.83
2019-05-05T06:09:44.931Z,21.85
2019-05-05T06:10:44.594Z,22.14
2019-05-05T06:11:44.627Z,21.84
2019-05-05T06:12:45.068Z,21.89
2019-05-05T06:13:47.467Z,22.12
2019-05-05T06:14:44.840Z,22.31
2019-05-05T06:15:44.678Z,22.56
2019-05-05T06:16:44.887Z,22.40
2019-05-05T06:17:45.039Z,22.44
2019-05-05T06:18:44.746Z,22.81
2019-05-05T06:19:44.758Z,22.89
2019-05-05T06:20:44.747Z,22.77
2019-05-05T06:21:44.760Z,22.76
2019-05-05T06:22:44.801Z,22.96
2019-05-05T06:23:44.756Z,22.98
2019-05-05T06:24:44.737Z,22.89
2019-05-05T06:25:44.969Z,22.78
2019-05-05T06:26:45.763Z,22.30
2019-05-05T06:27:45.990Z,22.25
2019-05-05T06:28:48.223Z,22.61
2019-05-05T06:29:45.547Z,22.71
2019-05-05T06:30:45.305Z,22.68
2019-05-05T06:31:44.919Z,22.65
2019-05-05T06:32:45.800Z,22.38
2019-05-05T06:33:44.851Z,22.33
2019-05-05T06:34:44.894Z,22.12
2019-05-05T06:35:44.873Z,21.99
2019-05-05T06:36:44.885Z,21.78
2019-05-05T06:37:46.685Z,21.65
2019-05-05T06:38:44.943Z,21.37
2019-05-05T06:39:44.963Z,21.17
2019-05-05T06:40:44.948Z,20.85
2019-05-05T06:41:44.953Z,20.19
2019-05-05T06:42:44.962Z,20.12
2019-05-05T06:43:45.015Z,20.15
2019-05-05T06:44:45.020Z,20.08
2019-05-05T06:45:44.995Z,19.90
2019-05-05T06:46:45.021Z,19.63
2019-05-05T06:47:45.168Z,18.73
2019-05-05T06:48:45.036Z,18.66
2019-05-05T06:49:45.064Z,18.66
2019-05-05T06:50:45.062Z,18.49
2019-05-05T06:51:45.063Z,18.42
2019-05-05T06:52:47.116Z,18.31
2019-05-05T06:53:45.076Z,18.21
2019-05-05T06:54:45.124Z,18.00
2019-05-05T06:55:45.101Z,17.57
2019-05-05T06:56:45.114Z,17.24
2019-05-05T06:57:45.120Z,17.28
2019-05-05T06:58:45.128Z,17.05
2019-05-05T06:59:45.175Z,16.83
2019-05-05T07:00:45.272Z,16.73
2019-05-05T07:01:45.158Z,16.62
2019-05-05T07:02:45.213Z,16.46
2019-05-05T07:03:45.177Z,16.21
2019-05-05T07:04:45.229Z,15.96
2019-05-05T07:05:45.227Z,15.96
2019-05-05T07:06:53.536Z,15.85
2019-05-05T07:07:45.278Z,15.70
2019-05-05T07:08:45.547Z,15.51
2019-05-05T07:09:45.293Z,15.35
2019-05-05T07:10:45.294Z,15.08
2019-05-05T07:11:45.292Z,14.99
2019-05-05T07:12:45.267Z,14.85
2019-05-05T07:13:45.308Z,14.78
2019-05-05T07:14:45.278Z,14.79
2019-05-05T07:15:45.283Z,14.62
2019-05-05T07:16:45.331Z,14.53
2019-05-05T07:17:45.332Z,14.52
2019-05-05T07:18:45.306Z,14.22
2019-05-05T07:19:45.321Z,14.20
2019-05-05T07:20:45.367Z,13.94
2019-05-05T07:21:45.330Z,13.97
2019-05-05T07:22:58.474Z,13.89
2019-05-05T07:23:45.365Z,13.83
2019-05-05T07:24:45.339Z,13.80
2019-05-05T07:25:46.117Z,13.68
2019-05-05T07:26:45.626Z,13.61
2019-05-05T07:27:45.373Z,13.43
2019-05-05T07:28:45.383Z,13.36
2019-05-05T07:29:45.382Z,13.28
2019-05-05T07:30:45.391Z,13.05
2019-05-05T07:31:45.451Z,12.94
2019-05-05T07:32:45.434Z,12.94
2019-05-05T07:33:45.417Z,12.86
2019-05-05T07:34:45.424Z,12.83
2019-05-05T07:35:55.381Z,12.86
2019-05-05T07:36:45.484Z,12.76
2019-05-05T07:37:46.362Z,12.75
2019-05-05T07:38:45.447Z,12.73
2019-05-05T07:39:45.459Z,12.66
2019-05-05T07:40:45.497Z,12.66
2019-05-05T07:41:45.460Z,12.69
2019-05-05T07:42:45.497Z,12.62
2019-05-05T07:43:45.583Z,12.58
2019-05-05T07:44:45.619Z,12.62
2019-05-05T07:45:45.489Z,12.58
2019-05-05T07:46:45.502Z,12.62
2019-05-05T07:47:47.380Z,12.55
2019-05-05T07:48:45.699Z,12.48
2019-05-05T07:49:45.510Z,12.55
2019-05-05T07:50:58.677Z,12.55
2019-05-05T07:51:45.572Z,12.55
2019-05-05T07:52:45.541Z,12.51
2019-05-05T07:53:45.583Z,12.37
2019-05-05T07:54:45.702Z,12.12
2019-05-05T07:55:45.544Z,11.97
2019-05-05T07:56:45.843Z,11.80
2019-05-05T07:57:45.578Z,11.74
2019-05-05T07:58:45.568Z,11.65
2019-05-05T07:59:45.595Z,11.60
2019-05-05T08:00:45.622Z,11.73
2019-05-05T08:01:46.721Z,11.67
2019-05-05T08:02:45.601Z,11.55
2019-05-05T08:03:45.616Z,11.48
2019-05-05T08:04:45.630Z,11.40
2019-05-05T08:05:45.666Z,11.38
2019-05-05T08:06:45.845Z,11.44
2019-05-05T08:07:45.838Z,11.48
2019-05-05T08:08:45.688Z,11.53
2019-05-05T08:09:45.717Z,11.43
2019-05-05T08:10:45.674Z,11.44
2019-05-05T08:11:45.722Z,11.51
2019-05-05T08:12:45.774Z,11.51
2019-05-05T08:13:45.759Z,11.53
2019-05-05T08:14:45.758Z,11.40
2019-05-05T08:15:56.267Z,11.48
2019-05-05T08:16:45.887Z,11.41
2019-05-05T08:17:45.715Z,11.35
2019-05-05T08:18:45.685Z,11.43
2019-05-05T08:19:45.751Z,11.35
2019-05-05T08:20:45.744Z,11.40
2019-05-05T08:21:45.854Z,11.45
2019-05-05T08:22:45.812Z,11.56
2019-05-05T08:23:45.812Z,11.49
2019-05-05T08:24:45.737Z,11.55
2019-05-05T08:25:45.744Z,11.70
2019-05-05T08:26:45.838Z,11.63
2019-05-05T08:27:45.728Z,11.78
2019-05-05T08:28:45.786Z,11.77
2019-05-05T08:29:45.761Z,11.81
2019-05-05T08:30:45.787Z,11.85
2019-05-05T08:31:45.752Z,12.03
2019-05-05T08:32:45.790Z,12.14
2019-05-05T08:33:45.806Z,12.11
2019-05-05T08:34:56.891Z,12.14
2019-05-05T08:35:45.890Z,12.26
2019-05-05T08:36:45.875Z,12.35
2019-05-05T08:37:45.802Z,12.44
2019-05-05T08:38:45.810Z,12.40
2019-05-05T08:39:45.812Z,12.44
2019-05-05T08:40:45.839Z,12.66
2019-05-05T08:41:47.440Z,12.61
2019-05-05T08:42:45.877Z,12.70
2019-05-05T08:43:46.887Z,12.70
2019-05-05T08:44:45.846Z,12.84
2019-05-05T08:45:45.847Z,12.87
2019-05-05T08:46:46.008Z,12.91
2019-05-05T08:47:45.971Z,13.06
2019-05-05T08:48:45.872Z,13.21
2019-05-05T08:49:45.919Z,13.17
2019-05-05T08:50:45.988Z,13.30
2019-05-05T08:51:45.894Z,13.43
2019-05-05T08:52:45.978Z,13.52
2019-05-05T08:53:48.393Z,13.60
2019-05-05T08:54:46.212Z,13.42
2019-05-05T08:55:46.155Z,13.39
2019-05-05T08:56:45.936Z,13.39
2019-05-05T08:57:45.940Z,13.43
2019-05-05T08:58:46.000Z,13.52
2019-05-05T08:59:45.972Z,13.61
2019-05-05T09:00:46.105Z,13.61
2019-05-05T09:01:45.970Z,13.64
2019-05-05T09:02:45.963Z,13.55
2019-05-05T09:03:45.988Z,13.52
2019-05-05T09:04:46.043Z,13.58
2019-05-05T09:05:46.031Z,13.62
2019-05-05T09:06:46.028Z,13.62
2019-05-05T09:07:46.039Z,13.60
2019-05-05T09:08:46.068Z,13.70
2019-05-05T09:09:46.061Z,13.68
2019-05-05T09:10:46.070Z,13.78
2019-05-05T09:11:46.032Z,13.80
2019-05-05T09:12:46.061Z,13.71
2019-05-05T09:13:46.076Z,13.70
2019-05-05T09:14:46.128Z,13.55
2019-05-05T09:15:46.126Z,13.62
2019-05-05T09:16:46.277Z,13.60
2019-05-05T09:17:46.380Z,13.62
2019-05-05T09:18:46.109Z,13.61
2019-05-05T09:19:46.115Z,13.64
2019-05-05T09:20:46.157Z,13.61
2019-05-05T09:21:46.114Z,13.62
2019-05-05T09:22:46.120Z,13.50
2019-05-05T09:23:59.118Z,13.47
2019-05-05T09:24:46.195Z,13.45
2019-05-05T09:25:46.180Z,13.45
2019-05-05T09:26:46.206Z,13.50
2019-05-05T09:27:46.279Z,13.57
2019-05-05T09:28:46.184Z,13.68
2019-05-05T09:29:46.211Z,13.71
2019-05-05T09:30:46.270Z,13.83
2019-05-05T09:31:46.189Z,13.68
2019-05-05T09:32:46.322Z,13.55
2019-05-05T09:33:46.364Z,13.57
2019-05-05T09:34:46.213Z,13.33
2019-05-05T09:35:46.261Z,13.26
2019-05-05T09:36:46.212Z,13.23
2019-05-05T09:37:46.243Z,13.40
2019-05-05T09:38:46.229Z,13.45
2019-05-05T09:39:46.352Z,13.52
2019-05-05T09:40:46.307Z,13.54
2019-05-05T09:41:46.325Z,13.57
2019-05-05T09:42:46.297Z,13.45
2019-05-05T09:43:46.417Z,13.50
2019-05-05T09:44:46.371Z,13.39
2019-05-05T09:45:46.326Z,13.42
2019-05-05T09:46:46.281Z,13.33
2019-05-05T09:47:46.297Z,13.39
2019-05-05T09:48:46.357Z,13.36
2019-05-05T09:49:46.271Z,13.43
2019-05-05T09:50:46.673Z,13.45
2019-05-05T09:51:46.544Z,13.47
2019-05-05T09:52:46.614Z,13.54
2019-05-05T09:53:46.609Z,13.62
2019-05-05T09:54:46.570Z,13.61
2019-05-05T09:55:46.529Z,13.54
2019-05-05T09:56:46.399Z,13.62
2019-05-05T09:57:46.588Z,13.75
2019-05-05T09:58:46.426Z,13.83
2019-05-05T09:59:46.398Z,13.89
2019-05-05T10:00:46.652Z,13.95
2019-05-05T10:01:46.568Z,13.95
2019-05-05T10:02:46.445Z,14.00
2019-05-05T10:03:46.592Z,13.95
2019-05-05T10:04:46.995Z,13.94
2019-05-05T10:05:46.643Z,13.95
2019-05-05T10:06:47.938Z,14.01
2019-05-05T10:07:46.603Z,14.05
2019-05-05T10:08:46.842Z,14.13
2019-05-05T10:09:46.887Z,14.30
2019-05-05T10:10:46.470Z,14.26
2019-05-05T10:11:46.727Z,14.33
2019-05-05T10:12:46.981Z,14.45
2019-05-05T10:13:46.732Z,14.31
2019-05-05T10:14:46.512Z,14.28
2019-05-05T10:15:46.709Z,14.34
2019-05-05T10:16:46.519Z,14.41
2019-05-05T10:17:46.511Z,14.38
2019-05-05T10:18:46.476Z,14.51
2019-05-05T10:19:46.489Z,14.51
2019-05-05T10:20:46.504Z,14.38
2019-05-05T10:21:46.507Z,14.37
2019-05-05T10:22:46.531Z,14.43
2019-05-05T10:23:46.525Z,14.38
2019-05-05T10:24:46.542Z,14.34
2019-05-05T10:25:46.551Z,14.40
2019-05-05T10:26:46.527Z,14.45
2019-05-05T10:27:47.780Z,14.62
2019-05-05T10:28:46.544Z,14.68
2019-05-05T10:29:46.564Z,14.78
2019-05-05T10:30:46.578Z,14.85
2019-05-05T10:31:46.580Z,14.94
2019-05-05T10:32:46.625Z,14.86
2019-05-05T10:33:46.587Z,14.89
2019-05-05T10:34:46.596Z,15.02
2019-05-05T10:35:46.597Z,15.05
2019-05-05T10:36:46.611Z,15.02
2019-05-05T10:37:46.653Z,15.10
2019-05-05T10:38:46.755Z,15.14
2019-05-05T10:39:46.629Z,15.26
2019-05-05T10:40:48.334Z,15.22
2019-05-05T10:41:46.904Z,15.27
2019-05-05T10:42:46.649Z,15.12
2019-05-05T10:43:46.694Z,14.93
2019-05-05T10:44:46.678Z,14.77
2019-05-05T10:45:46.703Z,14.93
2019-05-05T10:46:46.689Z,14.89
2019-05-05T10:47:46.717Z,14.87
2019-05-05T10:48:46.736Z,14.85
2019-05-05T10:49:46.736Z,14.92
2019-05-05T10:50:46.712Z,15.08
2019-05-05T10:51:46.746Z,15.02
2019-05-05T10:52:46.735Z,14.97
2019-05-05T10:53:46.794Z,14.90
2019-05-05T10:54:46.751Z,14.85
2019-05-05T10:55:46.764Z,14.87
2019-05-05T10:56:46.803Z,14.82
2019-05-05T10:57:46.777Z,14.56
2019-05-05T10:58:46.805Z,14.59
2019-05-05T10:59:46.780Z,14.55
2019-05-05T11:00:46.790Z,14.49
2019-05-05T11:01:46.792Z,14.51
2019-05-05T11:02:46.867Z,14.38
2019-05-05T11:03:46.831Z,14.33
2019-05-05T11:04:48.620Z,14.23
2019-05-05T11:05:46.941Z,14.30
2019-05-05T11:06:46.897Z,14.34
2019-05-05T11:07:46.869Z,14.40
2019-05-05T11:08:46.893Z,14.43
2019-05-05T11:09:46.866Z,14.37
2019-05-05T11:10:46.869Z,14.41
2019-05-05T11:11:46.937Z,14.53
2019-05-05T11:12:46.873Z,14.51
2019-05-05T11:13:47.013Z,14.51
2019-05-05T11:14:46.893Z,14.53
2019-05-05T11:15:46.922Z,14.70
2019-05-05T11:16:46.958Z,14.78
2019-05-05T11:17:46.923Z,14.68
2019-05-05T11:18:46.920Z,14.66
2019-05-05T11:19:47.222Z,14.51
2019-05-05T11:20:46.939Z,14.43
2019-05-05T11:21:46.960Z,14.41
2019-05-05T11:22:46.944Z,14.40
2019-05-05T11:23:46.989Z,14.40
2019-05-05T11:24:57.401Z,14.30
2019-05-05T11:25:46.963Z,14.48
2019-05-05T11:26:46.994Z,14.62
2019-05-05T11:27:46.991Z,14.78
2019-05-05T11:28:47.015Z,14.78
2019-05-05T11:29:47.043Z,14.79
2019-05-05T11:30:47.016Z,14.93
2019-05-05T11:31:47.032Z,14.89
2019-05-05T11:32:47.069Z,14.90
2019-05-05T11:33:47.039Z,14.85
2019-05-05T11:34:47.072Z,14.92
2019-05-05T11:35:47.739Z,14.92
2019-05-05T11:36:47.344Z,14.94
2019-05-05T11:37:47.096Z,14.85
2019-05-05T11:38:47.064Z,14.87
2019-05-05T11:39:47.077Z,14.89
2019-05-05T11:40:47.138Z,14.90
2019-05-05T11:41:47.458Z,14.96
2019-05-05T11:42:47.403Z,14.90
2019-05-05T11:43:47.150Z,14.77
2019-05-05T11:44:47.593Z,14.74
2019-05-05T11:45:47.162Z,14.71
2019-05-05T11:46:47.147Z,14.85
2019-05-05T11:47:47.144Z,14.94
2019-05-05T11:48:47.180Z,15.07
2019-05-05T11:49:47.188Z,14.92
2019-05-05T11:50:47.177Z,14.73
2019-05-05T11:51:47.175Z,14.82
2019-05-05T11:52:47.177Z,14.90
2019-05-05T11:53:47.276Z,14.82
2019-05-05T11:54:47.187Z,14.93
2019-05-05T11:55:47.219Z,14.96
2019-05-05T11:56:47.203Z,14.89
2019-05-05T11:57:47.218Z,14.94
2019-05-05T11:58:47.288Z,14.97
2019-05-05T11:59:47.257Z,14.90
2019-05-05T12:00:47.279Z,14.90
2019-05-05T12:01:47.252Z,14.85
2019-05-05T12:02:47.277Z,14.77
2019-05-05T12:03:47.297Z,14.92
2019-05-05T12:04:47.289Z,14.92
2019-05-05T12:05:47.306Z,14.87
2019-05-05T12:06:47.289Z,14.78
2019-05-05T12:07:47.284Z,14.71
2019-05-05T12:08:47.340Z,14.48
2019-05-05T12:09:47.311Z,14.44
2019-05-05T12:10:47.387Z,14.37
2019-05-05T12:11:47.329Z,14.49
2019-05-05T12:12:47.367Z,14.31
2019-05-05T12:13:47.339Z,14.31
2019-05-05T12:14:47.342Z,14.36
2019-05-05T12:15:47.400Z,14.41
2019-05-05T12:16:47.594Z,14.48
2019-05-05T12:17:47.373Z,14.51
2019-05-05T12:18:47.394Z,14.45
2019-05-05T12:19:48.617Z,14.49
2019-05-05T12:20:47.432Z,14.52
2019-05-05T12:21:47.410Z,14.61
2019-05-05T12:22:47.428Z,14.70
2019-05-05T12:23:47.420Z,14.73
2019-05-05T12:24:47.440Z,14.73
2019-05-05T12:25:47.434Z,14.89
2019-05-05T12:26:47.470Z,14.73
2019-05-05T12:27:47.534Z,14.74
2019-05-05T12:28:47.440Z,14.81
2019-05-05T12:29:47.481Z,14.94
2019-05-05T12:30:47.449Z,15.07
2019-05-05T12:31:47.498Z,15.17
2019-05-05T12:32:47.463Z,15.04
2019-05-05T12:33:47.582Z,15.11
2019-05-05T12:34:47.507Z,15.22
2019-05-05T12:35:47.489Z,15.19
2019-05-05T12:36:47.628Z,15.26
2019-05-05T12:37:47.555Z,15.23
2019-05-05T12:38:47.569Z,15.25
2019-05-05T12:39:47.625Z,15.48
2019-05-05T12:40:47.565Z,15.47
2019-05-05T12:41:47.573Z,15.50
2019-05-05T12:42:47.557Z,15.55
2019-05-05T12:43:47.600Z,15.45
2019-05-05T12:44:47.603Z,15.50
2019-05-05T12:45:47.674Z,15.47
2019-05-05T12:46:47.595Z,15.45
2019-05-05T12:47:47.618Z,15.30
2019-05-05T12:48:47.617Z,15.33
2019-05-05T12:49:47.640Z,15.35
2019-05-05T12:50:47.626Z,15.22
2019-05-05T12:51:47.640Z,15.25
2019-05-05T12:52:47.723Z,15.07
2019-05-05T12:53:47.712Z,15.12
2019-05-05T12:54:47.675Z,15.33
2019-05-05T12:55:47.686Z,15.35
2019-05-05T12:56:47.661Z,15.44
2019-05-05T12:57:47.699Z,15.44
2019-05-05T12:58:47.731Z,15.44
2019-05-05T12:59:47.763Z,15.33
2019-05-05T13:00:47.711Z,15.37
2019-05-05T13:01:47.719Z,15.47